^^
Datos históricos de la estación: Murcia-Puente Tocinos
Diario Informe para Febrero 22, 2019 Unidades:  Ambas    Ingés   Métrico
Diario Semanal Mensual Anual
  Máxima: Mínima: Promedio:
Temperatura: 84.9 °F /  29.4 °C 71.4 °F /  21.9 °C 77.9 °F /  25.5 °C
Punto de rocio: 69.3 °F /  20.7 °C 60.8 °F /  16 °C 65.7 °F /  18.7 °C
Humedad: 84% 46.7% 67%
Velocidad viento: 10.2mph /  16.4km/h - 4.7mph /  7.5km/h
Racha viento: 21mph /  33.8km/h - -
Viento- - SE
Presión: 30.1 in /  1018.6 hPa 30 in /  1016.8 hPa -
Precipitación: 0 in /  0.0 mm    
 
 
Tabla de datos para Febrero 22, 2019
Hora Temperatura Punto de rocio Presión Viento Velocidad viento Racha viento Humedad Intensidad lluvia(por hora) Nubes
00:04 75.9 °F /  24.4 °C 65.8 °F /  18.8 °C 30.1in /  1017.9hPa SSO 1.8mph /  2.9km/h 5.8mph /  9.3km/h 71.1% 0in /  0.0mm
00:09 75.9 °F /  24.4 °C 66.2 °F /  19 °C 30.1in /  1017.7hPa SSE 2.1mph /  3.4km/h 6mph /  9.7km/h 72% 0in /  0.0mm
00:14 75.9 °F /  24.4 °C 66.2 °F /  19 °C 30.1in /  1017.7hPa SSE 3.1mph /  5km/h 6mph /  9.7km/h 72% 0in /  0.0mm
00:19 75.9 °F /  24.4 °C 66.2 °F /  19 °C 30.1in /  1017.9hPa SE 2.9mph /  4.6km/h 4mph /  6.4km/h 72% 0in /  0.0mm
00:24 75.9 °F /  24.4 °C 66.2 °F /  19 °C 30.1in /  1017.9hPa Sur 2mph /  3.2km/h 6.2mph /  10km/h 72% 0in /  0.0mm
00:29 75.9 °F /  24.4 °C 66.2 °F /  19 °C 30.1in /  1017.9hPa Sur 2.3mph /  3.7km/h 6mph /  9.7km/h 72% 0in /  0.0mm
00:34 75.7 °F /  24.3 °C 66 °F /  18.9 °C 30.1in /  1018.1hPa Sur 3.1mph /  5km/h 6mph /  9.7km/h 72% 0in /  0.0mm
00:39 75.7 °F /  24.3 °C 66.4 °F /  19.1 °C 30.1in /  1018.1hPa SSO 3.1mph /  5km/h 6mph /  9.7km/h 72.8% 0in /  0.0mm
00:44 75.7 °F /  24.3 °C 66.4 °F /  19.1 °C 30.1in /  1018.1hPa SSO 3.1mph /  5km/h 5.8mph /  9.3km/h 72.8% 0in /  0.0mm
00:49 75.7 °F /  24.3 °C 66 °F /  18.9 °C 30.1in /  1018.1hPa Sur 3.2mph /  5.2km/h 6mph /  9.7km/h 72% 0in /  0.0mm
00:54 75.7 °F /  24.3 °C 66 °F /  18.9 °C 30.1in /  1018.1hPa SSO 3.6mph /  5.8km/h 6mph /  9.7km/h 72% 0in /  0.0mm
00:59 75.7 °F /  24.3 °C 66.2 °F /  19 °C 30.1in /  1018.1hPa SSO 3.7mph /  6km/h 6.2mph /  10km/h 72% 0in /  0.0mm
01:04 75.9 °F /  24.4 °C 66.2 °F /  19 °C 30.1in /  1018.1hPa SSO 4mph /  6.5km/h 6mph /  9.7km/h 72% 0in /  0.0mm
01:09 75.9 °F /  24.4 °C 66.2 °F /  19 °C 30.1in /  1018.0hPa SO 3.8mph /  6.1km/h 6mph /  9.7km/h 72% 0in /  0.0mm
01:14 75.9 °F /  24.4 °C 66.2 °F /  19 °C 30.1in /  1018.0hPa OSO 3.1mph /  5km/h 6.2mph /  10km/h 72% 0in /  0.0mm
01:19 75.9 °F /  24.4 °C 66.2 °F /  19 °C 30.1in /  1018.0hPa SO 3mph /  4.9km/h 6mph /  9.7km/h 72% 0in /  0.0mm
01:24 75.9 °F /  24.4 °C 66.2 °F /  19 °C 30.1in /  1017.9hPa SO 2.9mph /  4.7km/h 5mph /  8km/h 72% 0in /  0.0mm
01:29 75.9 °F /  24.4 °C 66.2 °F /  19 °C 30.1in /  1017.9hPa OSO 2.9mph /  4.7km/h 5.8mph /  9.3km/h 72% 0in /  0.0mm
01:34 75.9 °F /  24.4 °C 66.2 °F /  19 °C 30.1in /  1018.1hPa ONO 2.9mph /  4.7km/h 6mph /  9.7km/h 72% 0in /  0.0mm
01:39 75.9 °F /  24.4 °C 66.2 °F /  19 °C 30.1in /  1018.1hPa Oeste 2.7mph /  4.3km/h 5mph /  8km/h 72.2% 0in /  0.0mm
01:44 75.7 °F /  24.3 °C 66.2 °F /  19 °C 30.1in /  1018.1hPa OSO 2mph /  3.2km/h 5.2mph /  8.4km/h 72.4% 0in /  0.0mm
01:49 75.6 °F /  24.2 °C 66.4 °F /  19.1 °C 30.1in /  1018.1hPa Oeste 2.1mph /  3.4km/h 5mph /  8km/h 73% 0in /  0.0mm
01:54 75.6 °F /  24.2 °C 66.2 °F /  19 °C 30.1in /  1017.9hPa SO 2.4mph /  3.9km/h 5mph /  8km/h 72.7% 0in /  0.0mm
01:59 75.6 °F /  24.2 °C 65.8 °F /  18.8 °C 30.1in /  1017.9hPa SSO 2.5mph /  4.1km/h 5mph /  8km/h 72% 0in /  0.0mm
02:04 75.6 °F /  24.2 °C 65.8 °F /  18.8 °C 30.1in /  1017.9hPa SSO 2.9mph /  4.6km/h 5mph /  8km/h 72% 0in /  0.0mm
02:09 75.6 °F /  24.2 °C 66.2 °F /  19 °C 30.1in /  1017.8hPa SSE 2.9mph /  4.7km/h 8.1mph /  13km/h 72.7% 0in /  0.0mm
02:14 75.4 °F /  24.1 °C 66.4 °F /  19.1 °C 30.1in /  1017.8hPa SSE 2.9mph /  4.7km/h 8.1mph /  13km/h 73.7% 0in /  0.0mm
02:19 74.8 °F /  23.8 °C 66.4 °F /  19.1 °C 30.1in /  1017.8hPa SSE 3.5mph /  5.6km/h 8.1mph /  13km/h 74.9% 0in /  0.0mm
02:24 74.7 °F /  23.7 °C 66.4 °F /  19.1 °C 30.1in /  1017.5hPa Sur 5.2mph /  8.4km/h 8.1mph /  13km/h 75.9% 0in /  0.0mm
02:29 74.3 °F /  23.5 °C 66.4 °F /  19.1 °C 30.1in /  1017.5hPa SSE 5.2mph /  8.4km/h 8.5mph /  13.7km/h 76.4% 0in /  0.0mm
02:34 74.1 °F /  23.4 °C 66.4 °F /  19.1 °C 30.1in /  1017.5hPa Sur 5.2mph /  8.4km/h 9mph /  14.5km/h 77% 0in /  0.0mm
02:39 74.1 °F /  23.4 °C 66.4 °F /  19.1 °C 30in /  1017.3hPa SSO 5mph /  8km/h 7mph /  11.3km/h 77% 0in /  0.0mm
02:44 73.9 °F /  23.3 °C 66.4 °F /  19.1 °C 30in /  1017.3hPa SSO 4.3mph /  6.9km/h 7.4mph /  11.9km/h 77% 0in /  0.0mm
02:49 74.1 °F /  23.4 °C 66.4 °F /  19.1 °C 30in /  1017.3hPa SSO 4.4mph /  7.1km/h 7mph /  11.3km/h 77% 0in /  0.0mm
02:54 74.1 °F /  23.4 °C 66.4 °F /  19.1 °C 30in /  1017.3hPa Sur 4.7mph /  7.6km/h 7mph /  11.3km/h 77% 0in /  0.0mm
02:59 74.1 °F /  23.4 °C 66.4 °F /  19.1 °C 30in /  1017.3hPa Sur 4.5mph /  7.3km/h 6mph /  9.7km/h 77% 0in /  0.0mm
03:04 74.3 °F /  23.5 °C 66.2 °F /  19 °C 30in /  1017.3hPa Sur 4mph /  6.5km/h 6mph /  9.7km/h 76% 0in /  0.0mm
03:09 74.3 °F /  23.5 °C 66.2 °F /  19 °C 30in /  1017.2hPa Sur 3.9mph /  6.3km/h 6mph /  9.7km/h 76% 0in /  0.0mm
03:14 74.1 °F /  23.4 °C 66.2 °F /  19 °C 30in /  1017.2hPa SSO 3.6mph /  5.8km/h 6mph /  9.7km/h 76% 0in /  0.0mm
03:19 74.1 °F /  23.4 °C 66 °F /  18.9 °C 30in /  1017.3hPa SSO 3.4mph /  5.5km/h 5mph /  8km/h 76% 0in /  0.0mm
03:24 74.1 °F /  23.4 °C 66 °F /  18.9 °C 30in /  1017.3hPa SSO 2.9mph /  4.7km/h 5mph /  8km/h 76% 0in /  0.0mm
03:29 74.1 °F /  23.4 °C 66 °F /  18.9 °C 30in /  1017.3hPa SSO 2.2mph /  3.5km/h   76% 0in /  0.0mm
03:34 74.1 °F /  23.4 °C 66.2 °F /  19 °C 30in /  1017.3hPa Calm     76% 0in /  0.0mm
03:39 74.3 °F /  23.5 °C 66.2 °F /  19 °C 30in /  1017.2hPa Calm     76% 0in /  0.0mm
03:44 74.3 °F /  23.5 °C 66.2 °F /  19 °C 30in /  1017.2hPa Calm     75.9% 0in /  0.0mm
03:49 74.3 °F /  23.5 °C 66 °F /  18.9 °C 30in /  1017.2hPa Calm     75.7% 0in /  0.0mm
03:54 74.3 °F /  23.5 °C 66.2 °F /  19 °C 30in /  1017.2hPa Calm     76% 0in /  0.0mm
03:59 74.1 °F /  23.4 °C 66.4 °F /  19.1 °C 30in /  1017.2hPa Calm     76.7% 0in /  0.0mm
04:04 73.9 °F /  23.3 °C 66.4 °F /  19.1 °C 30in /  1017.2hPa Calm     77% 0in /  0.0mm
04:09 73.9 °F /  23.3 °C 66.6 °F /  19.2 °C 30in /  1017.2hPa Calm     77.9% 0in /  0.0mm
04:14 73.8 °F /  23.2 °C 66.6 °F /  19.2 °C 30in /  1017.2hPa Calm     78% 0in /  0.0mm
04:19 73.8 °F /  23.2 °C 66.4 °F /  19.1 °C 30in /  1017.2hPa Calm     78% 0in /  0.0mm
04:24 73.6 °F /  23.1 °C 66.4 °F /  19.1 °C 30in /  1017.0hPa Calm     78% 0in /  0.0mm
04:29 73.6 °F /  23.1 °C 66.4 °F /  19.1 °C 30in /  1017.0hPa Calm   3.6mph /  5.8km/h 78.3% 0in /  0.0mm
04:34 73.6 °F /  23.1 °C 66.7 °F /  19.3 °C 30in /  1017.2hPa Calm   4mph /  6.4km/h 79% 0in /  0.0mm
04:39 73.4 °F /  23 °C 66.6 °F /  19.2 °C 30in /  1017.2hPa ONO 0.5mph /  0.8km/h 4mph /  6.4km/h 79% 0in /  0.0mm
04:44 73.2 °F /  22.9 °C 66.4 °F /  19.1 °C 30in /  1017.2hPa ONO 2mph /  3.2km/h 3mph /  4.8km/h 79% 0in /  0.0mm
04:49 73.2 °F /  22.9 °C 66.4 °F /  19.1 °C 30in /  1017.2hPa ONO 1.6mph /  2.5km/h   79% 0in /  0.0mm
04:54 73.2 °F /  22.9 °C 66.2 °F /  19 °C 30in /  1017.2hPa Calm     79% 0in /  0.0mm
04:59 73 °F /  22.8 °C 66.2 °F /  19 °C 30in /  1017.2hPa Calm   2.4mph /  3.9km/h 79% 0in /  0.0mm
05:04 73 °F /  22.8 °C 66.2 °F /  19 °C 30in /  1017.2hPa Calm   3.6mph /  5.8km/h 79% 0in /  0.0mm
05:09 72.9 °F /  22.7 °C 66.2 °F /  19 °C 30in /  1017.1hPa ENE 0.3mph /  0.5km/h 4mph /  6.4km/h 79.7% 0in /  0.0mm
05:14 72.7 °F /  22.6 °C 66.2 °F /  19 °C 30in /  1017.1hPa ENE 1.4mph /  2.2km/h   80% 0in /  0.0mm
05:19 72.7 °F /  22.6 °C 66.4 °F /  19.1 °C 30in /  1017.1hPa ESE 1.4mph /  2.2km/h 4.6mph /  7.4km/h 80.6% 0in /  0.0mm
05:24 72.3 °F /  22.4 °C 66.2 °F /  19 °C 30in /  1017.1hPa SE 1.4mph /  2.2km/h 5mph /  8km/h 81% 0in /  0.0mm
05:29 72.3 °F /  22.4 °C 66.2 °F /  19 °C 30in /  1017.1hPa SSE 1.7mph /  2.8km/h 5.9mph /  9.5km/h 81.2% 0in /  0.0mm
05:34 72.1 °F /  22.3 °C 66.4 °F /  19.1 °C 30in /  1017.2hPa SSE 2.9mph /  4.7km/h 6.4mph /  10.3km/h 82% 0in /  0.0mm
05:39 72 °F /  22.2 °C 66.4 °F /  19.1 °C 30in /  1017.2hPa Sur 3.4mph /  5.4km/h 7.4mph /  11.9km/h 82.9% 0in /  0.0mm
05:44 71.8 °F /  22.1 °C 66.2 °F /  19 °C 30in /  1017.2hPa Sur 4.7mph /  7.6km/h 7mph /  11.3km/h 83% 0in /  0.0mm
05:49 71.6 °F /  22 °C 66.4 °F /  19.1 °C 30in /  1017.2hPa Sur 4.5mph /  7.2km/h 6.2mph /  10km/h 83.6% 0in /  0.0mm
05:54 71.4 °F /  21.9 °C 66.4 °F /  19.1 °C 30in /  1017.1hPa Sur 3.6mph /  5.8km/h 6.2mph /  10km/h 84% 0in /  0.0mm
05:59 71.4 °F /  21.9 °C 66.4 °F /  19.1 °C 30in /  1017.1hPa Sur 3.6mph /  5.8km/h 6mph /  9.7km/h 84% 0in /  0.0mm
06:04 71.6 °F /  22 °C 66.4 °F /  19.1 °C 30in /  1017.1hPa Sur 3.6mph /  5.8km/h 6mph /  9.7km/h 84% 0in /  0.0mm
06:09 71.6 °F /  22 °C 66.4 °F /  19.1 °C 30in /  1017.1hPa Sur 3.7mph /  5.9km/h 6.9mph /  11.1km/h 83.5% 0in /  0.0mm
06:14 71.8 °F /  22.1 °C 66.4 °F /  19.1 °C 30in /  1017.1hPa Sur 4mph /  6.5km/h 7mph /  11.3km/h 83% 0in /  0.0mm
06:19 71.8 °F /  22.1 °C 66.4 °F /  19.1 °C 30in /  1017.1hPa Sur 4mph /  6.5km/h 6.2mph /  10km/h 83% 0in /  0.0mm
06:24 72 °F /  22.2 °C 66.2 °F /  19 °C 30in /  1017.1hPa SSO 4mph /  6.5km/h 6.9mph /  11.1km/h 82.4% 0in /  0.0mm
06:29 72 °F /  22.2 °C 66.2 °F /  19 °C 30in /  1017.1hPa SSO 4.1mph /  6.6km/h 7mph /  11.3km/h 82% 0in /  0.0mm
06:34 72 °F /  22.2 °C 66.2 °F /  19 °C 30in /  1017.2hPa SSO 4.3mph /  6.9km/h 7mph /  11.3km/h 82% 0in /  0.0mm
06:39 72 °F /  22.2 °C 66 °F /  18.9 °C 30in /  1017.2hPa SSO 4.2mph /  6.7km/h 6mph /  9.7km/h 81.5% 0in /  0.0mm
06:44 72.1 °F /  22.3 °C 66 °F /  18.9 °C 30in /  1017.2hPa SO 3.6mph /  5.8km/h 5mph /  8km/h 81% 0in /  0.0mm
06:49 72.1 °F /  22.3 °C 66 °F /  18.9 °C 30in /  1017.3hPa SO 3.2mph /  5.2km/h 4.6mph /  7.4km/h 81% 0in /  0.0mm
06:54 72.1 °F /  22.3 °C 66 °F /  18.9 °C 30in /  1017.3hPa OSO 2mph /  3.2km/h 5mph /  8km/h 81% 0in /  0.0mm
06:59 72.3 °F /  22.4 °C 66.2 °F /  19 °C 30in /  1017.3hPa SO 2.1mph /  3.4km/h 5mph /  8km/h 81% 0in /  0.0mm
07:04 72.3 °F /  22.4 °C 66.2 °F /  19 °C 30in /  1017.3hPa SO 2.4mph /  3.9km/h 5mph /  8km/h 81% 0in /  0.0mm
07:09 72.3 °F /  22.4 °C 66.2 °F /  19 °C 30in /  1017.3hPa OSO 2.3mph /  3.7km/h 4mph /  6.4km/h 81% 0in /  0.0mm
07:14 72.1 °F /  22.3 °C 66 °F /  18.9 °C 30in /  1017.3hPa SO 2mph /  3.2km/h 4mph /  6.4km/h 81% 0in /  0.0mm
07:19 72.1 °F /  22.3 °C 66 °F /  18.9 °C 30in /  1017.3hPa SO 1.5mph /  2.4km/h 4mph /  6.4km/h 81% 0in /  0.0mm
07:24 72.1 °F /  22.3 °C 66 °F /  18.9 °C 30in /  1017.3hPa Calm   5mph /  8km/h 81% 0in /  0.0mm
07:29 72.1 °F /  22.3 °C 66 °F /  18.9 °C 30in /  1017.3hPa SSO 0.6mph /  0.9km/h 5mph /  8km/h 81% 0in /  0.0mm
07:34 72.1 °F /  22.3 °C 66 °F /  18.9 °C 30in /  1017.4hPa SSO 2.4mph /  3.9km/h 5mph /  8km/h 81% 0in /  0.0mm
07:39 72 °F /  22.2 °C 65.8 °F /  18.8 °C 30in /  1017.4hPa SO 2.3mph /  3.7km/h 5mph /  8km/h 81% 0in /  0.0mm
07:44 72.1 °F /  22.3 °C 65.8 °F /  18.8 °C 30in /  1017.4hPa Oeste 2mph /  3.2km/h 3.1mph /  5km/h 81% 0in /  0.0mm
07:49 72 °F /  22.2 °C 65.8 °F /  18.8 °C 30in /  1017.4hPa Oeste 1.9mph /  3.1km/h 3.5mph /  5.6km/h 80.8% 0in /  0.0mm
07:54 72 °F /  22.2 °C 65.5 °F /  18.6 °C 30in /  1017.4hPa Oeste 1.8mph /  2.9km/h 4.6mph /  7.4km/h 80.1% 0in /  0.0mm
07:59 72 °F /  22.2 °C 65.5 °F /  18.6 °C 30in /  1017.4hPa OSO 1.9mph /  3km/h 5mph /  8km/h 80% 0in /  0.0mm
08:04 72 °F /  22.2 °C 65.5 °F /  18.6 °C 30.1in /  1017.5hPa OSO 2mph /  3.2km/h 5mph /  8km/h 80% 0in /  0.0mm
08:09 72 °F /  22.2 °C 65.3 °F /  18.5 °C 30.1in /  1017.5hPa Oeste 1.9mph /  3.1km/h 5mph /  8km/h 79.6% 0in /  0.0mm
08:14 72 °F /  22.2 °C 65.1 °F /  18.4 °C 30.1in /  1017.5hPa Oeste 1.8mph /  2.9km/h 4.7mph /  7.6km/h 79% 0in /  0.0mm
08:19 72.1 °F /  22.3 °C 65.3 °F /  18.5 °C 30.1in /  1017.7hPa OSO 2.1mph /  3.4km/h 5.2mph /  8.4km/h 79% 0in /  0.0mm
08:24 72.1 °F /  22.3 °C 65.3 °F /  18.5 °C 30.1in /  1017.7hPa Oeste 3.1mph /  5km/h 5mph /  8km/h 79% 0in /  0.0mm
08:29 72.3 °F /  22.4 °C 65.1 °F /  18.4 °C 30.1in /  1017.7hPa OSO 3mph /  4.9km/h 5mph /  8km/h 78.3% 0in /  0.0mm
08:34 72.3 °F /  22.4 °C 65.1 °F /  18.4 °C 30.1in /  1017.8hPa OSO 2.9mph /  4.7km/h 5.2mph /  8.4km/h 78% 0in /  0.0mm
08:39 72.7 °F /  22.6 °C 65.3 °F /  18.5 °C 30.1in /  1017.8hPa OSO 2.9mph /  4.7km/h 5.2mph /  8.4km/h 77.4% 0in /  0.0mm
08:44 72.9 °F /  22.7 °C 65.1 °F /  18.4 °C 30.1in /  1017.8hPa Oeste 3.1mph /  5km/h 5.9mph /  9.5km/h 77% 0in /  0.0mm
08:49 72.9 °F /  22.7 °C 65.3 °F /  18.5 °C 30.1in /  1018.1hPa ONO 3.1mph /  5km/h 6mph /  9.7km/h 77% 0in /  0.0mm
08:54 73 °F /  22.8 °C 65.5 °F /  18.6 °C 30.1in /  1018.1hPa ONO 3.1mph /  5km/h 6mph /  9.7km/h 77% 0in /  0.0mm
08:59 73 °F /  22.8 °C 65.3 °F /  18.5 °C 30.1in /  1018.1hPa Oeste 3.2mph /  5.2km/h 6.2mph /  10km/h 76.5% 0in /  0.0mm
09:04 73.2 °F /  22.9 °C 65.1 °F /  18.4 °C 30.1in /  1018.2hPa OSO 3.6mph /  5.8km/h 6.2mph /  10km/h 76% 0in /  0.0mm
09:09 73.4 °F /  23 °C 65.1 °F /  18.4 °C 30.1in /  1018.2hPa OSO 3.6mph /  5.8km/h 6mph /  9.7km/h 75.5% 0in /  0.0mm
09:14 73.6 °F /  23.1 °C 65.1 °F /  18.4 °C 30.1in /  1018.2hPa OSO 3.6mph /  5.8km/h 6mph /  9.7km/h 75% 0in /  0.0mm
09:19 73.8 °F /  23.2 °C 65.3 °F /  18.5 °C 30.1in /  1018.2hPa OSO 3.5mph /  5.6km/h 6mph /  9.7km/h 75% 0in /  0.0mm
09:24 73.9 °F /  23.3 °C 65.3 °F /  18.5 °C 30.1in /  1018.2hPa SO 3.1mph /  5km/h 6mph /  9.7km/h 74.7% 0in /  0.0mm
09:29 74.1 °F /  23.4 °C 65.1 °F /  18.4 °C 30.1in /  1018.2hPa OSO 3mph /  4.9km/h 5.9mph /  9.5km/h 73.6% 0in /  0.0mm
09:34 74.5 °F /  23.6 °C 65.3 °F /  18.5 °C 30.1in /  1018.3hPa ONO 2.9mph /  4.7km/h 6mph /  9.7km/h 73% 0in /  0.0mm
09:39 74.7 °F /  23.7 °C 65.3 °F /  18.5 °C 30.1in /  1018.3hPa Oeste 2.9mph /  4.7km/h 6mph /  9.7km/h 72.8% 0in /  0.0mm
09:44 74.8 °F /  23.8 °C 65.3 °F /  18.5 °C 30.1in /  1018.3hPa OSO 3.1mph /  5km/h 5.2mph /  8.4km/h 72% 0in /  0.0mm
09:49 75.2 °F /  24 °C 65.1 °F /  18.4 °C 30.1in /  1018.3hPa SO 3.1mph /  5km/h 6.9mph /  11.1km/h 71.2% 0in /  0.0mm
09:54 75.6 °F /  24.2 °C 65.3 °F /  18.5 °C 30.1in /  1018.3hPa SO 3.1mph /  5km/h 8.1mph /  13km/h 71% 0in /  0.0mm
09:59 75.6 °F /  24.2 °C 65.5 °F /  18.6 °C 30.1in /  1018.3hPa SO 3.2mph /  5.2km/h 8.1mph /  13km/h 70.8% 0in /  0.0mm
10:04 75.7 °F /  24.3 °C 65.3 °F /  18.5 °C 30.1in /  1018.3hPa OSO 3.6mph /  5.8km/h 8.1mph /  13km/h 70% 0in /  0.0mm
10:09 75.7 °F /  24.3 °C 64.9 °F /  18.3 °C 30.1in /  1018.2hPa SO 3.6mph /  5.8km/h 8mph /  12.9km/h 69.1% 0in /  0.0mm
10:14 75.7 °F /  24.3 °C 65.3 °F /  18.5 °C 30.1in /  1018.2hPa OSO 3.6mph /  5.8km/h 9.2mph /  14.8km/h 70% 0in /  0.0mm
10:19 75.9 °F /  24.4 °C 65.3 °F /  18.5 °C 30.1in /  1018.3hPa Oeste 3.6mph /  5.8km/h 9mph /  14.5km/h 69.7% 0in /  0.0mm
10:24 76.3 °F /  24.6 °C 65.3 °F /  18.5 °C 30.1in /  1018.3hPa Oeste 3.6mph /  5.8km/h 7mph /  11.3km/h 68.9% 0in /  0.0mm
10:29 76.5 °F /  24.7 °C 65.1 °F /  18.4 °C 30.1in /  1018.3hPa OSO 3.4mph /  5.5km/h 7.4mph /  11.9km/h 68% 0in /  0.0mm
10:34 76.6 °F /  24.8 °C 65.1 °F /  18.4 °C 30.1in /  1018.4hPa SO 2.9mph /  4.7km/h 7mph /  11.3km/h 67.8% 0in /  0.0mm
10:39 77 °F /  25 °C 65.3 °F /  18.5 °C 30.1in /  1018.4hPa ONO 2.7mph /  4.3km/h 5mph /  8km/h 67.1% 0in /  0.0mm
10:44 77.4 °F /  25.2 °C 65.5 °F /  18.6 °C 30.1in /  1018.4hPa ONO 2mph /  3.2km/h 5mph /  8km/h 66.8% 0in /  0.0mm
10:49 77.9 °F /  25.5 °C 65.5 °F /  18.6 °C 30.1in /  1018.4hPa SO 2mph /  3.2km/h 5.2mph /  8.4km/h 65.7% 0in /  0.0mm
10:54 78.4 °F /  25.8 °C 65.5 °F /  18.6 °C 30.1in /  1018.4hPa SSO 2mph /  3.2km/h 5.9mph /  9.5km/h 64.5% 0in /  0.0mm
10:59 78.6 °F /  25.9 °C 65.3 °F /  18.5 °C 30.1in /  1018.4hPa SE 2.2mph /  3.6km/h 6mph /  9.7km/h 63.5% 0in /  0.0mm
11:04 79 °F /  26.1 °C 65.3 °F /  18.5 °C 30.1in /  1018.4hPa SSO 2.9mph /  4.7km/h 6.9mph /  11.1km/h 62.7% 0in /  0.0mm
11:09 79.3 °F /  26.3 °C 65.1 °F /  18.4 °C 30.1in /  1018.4hPa Oeste 2.8mph /  4.5km/h 7mph /  11.3km/h 61.8% 0in /  0.0mm
11:14 79.9 °F /  26.6 °C 64.9 °F /  18.3 °C 30.1in /  1018.4hPa Sur 2.4mph /  3.9km/h 6mph /  9.7km/h 60.3% 0in /  0.0mm
11:19 79.9 °F /  26.6 °C 64.8 °F /  18.2 °C 30.1in /  1018.4hPa ESE 2.7mph /  4.3km/h 6mph /  9.7km/h 60% 0in /  0.0mm
11:24 80.2 °F /  26.8 °C 64.6 °F /  18.1 °C 30.1in /  1018.4hPa ESE 3.6mph /  5.8km/h 7.4mph /  11.9km/h 58.8% 0in /  0.0mm
11:29 80.2 °F /  26.8 °C 64.8 °F /  18.2 °C 30.1in /  1018.4hPa Sur 3.5mph /  5.6km/h 7mph /  11.3km/h 59.1% 0in /  0.0mm
11:34 80.8 °F /  27.1 °C 64.9 °F /  18.3 °C 30.1in /  1018.5hPa Este 3.1mph /  5km/h 6.9mph /  11.1km/h 58.6% 0in /  0.0mm
11:39 81 °F /  27.2 °C 64.8 °F /  18.2 °C 30.1in /  1018.5hPa ESE 3.2mph /  5.2km/h 7mph /  11.3km/h 58% 0in /  0.0mm
11:44 81 °F /  27.2 °C 64.6 °F /  18.1 °C 30.1in /  1018.5hPa Este 3.6mph /  5.8km/h 6.2mph /  10km/h 57.2% 0in /  0.0mm
11:49 81.3 °F /  27.4 °C 64.6 °F /  18.1 °C 30.1in /  1018.5hPa North 3.5mph /  5.6km/h 6mph /  9.7km/h 56.9% 0in /  0.0mm
11:54 81.9 °F /  27.7 °C 64.4 °F /  18 °C 30.1in /  1018.4hPa NNE 3.1mph /  5km/h 6.9mph /  11.1km/h 55.6% 0in /  0.0mm
11:59 81.9 °F /  27.7 °C 64.2 °F /  17.9 °C 30.1in /  1018.4hPa NE 3.1mph /  5km/h 7mph /  11.3km/h 55% 0in /  0.0mm
12:04 82 °F /  27.8 °C 64.2 °F /  17.9 °C 30.1in /  1018.5hPa NNE 3.1mph /  5km/h 6.9mph /  11.1km/h 54.8% 0in /  0.0mm
12:09 82.2 °F /  27.9 °C 63.9 °F /  17.7 °C 30.1in /  1018.5hPa NNO 3mph /  4.9km/h 7mph /  11.3km/h 53.8% 0in /  0.0mm
12:14 82.6 °F /  28.1 °C 63.9 °F /  17.7 °C 30.1in /  1018.5hPa NNE 2.9mph /  4.7km/h 7.4mph /  11.9km/h 53.4% 0in /  0.0mm
12:19 82.8 °F /  28.2 °C 63.9 °F /  17.7 °C 30.1in /  1018.5hPa Este 3.2mph /  5.1km/h 8.1mph /  13km/h 53% 0in /  0.0mm
12:24 82.6 °F /  28.1 °C 64 °F /  17.8 °C 30.1in /  1018.4hPa ENE 4mph /  6.5km/h 8mph /  12.9km/h 53.6% 0in /  0.0mm
12:29 82.9 °F /  28.3 °C 63.5 °F /  17.5 °C 30.1in /  1018.4hPa NE 4mph /  6.5km/h 12.7mph /  20.4km/h 52.3% 0in /  0.0mm
12:34 82.6 °F /  28.1 °C 63.5 °F /  17.5 °C 30.1in /  1018.4hPa NE 4mph /  6.5km/h 13mph /  20.9km/h 52.3% 0in /  0.0mm
12:39 82.6 °F /  28.1 °C 63.7 °F /  17.6 °C 30.1in /  1018.3hPa NNE 4.5mph /  7.2km/h 10mph /  16.1km/h 53% 0in /  0.0mm
12:44 82.8 °F /  28.2 °C 63.7 °F /  17.6 °C 30.1in /  1018.3hPa ENE 5.9mph /  9.5km/h 11.8mph /  19km/h 52.6% 0in /  0.0mm
12:49 82.8 °F /  28.2 °C 63.7 °F /  17.6 °C 30.1in /  1018.3hPa ENE 5.6mph /  9km/h 12mph /  19.3km/h 52.6% 0in /  0.0mm
12:54 82.9 °F /  28.3 °C 63.1 °F /  17.3 °C 30.1in /  1018.2hPa ENE 4.7mph /  7.6km/h 12.7mph /  20.4km/h 51.6% 0in /  0.0mm
12:59 82.9 °F /  28.3 °C 63.3 °F /  17.4 °C 30.1in /  1018.2hPa North 4.9mph /  7.9km/h 13mph /  20.9km/h 51.7% 0in /  0.0mm
13:04 82.9 °F /  28.3 °C 63.3 °F /  17.4 °C 30.1in /  1018.2hPa North 5.4mph /  8.7km/h 11.8mph /  19km/h 51.6% 0in /  0.0mm
13:09 83.1 °F /  28.4 °C 63 °F /  17.2 °C 30.1in /  1018.0hPa NE 5.5mph /  8.9km/h 13mph /  20.9km/h 50.5% 0in /  0.0mm
13:14 83.1 °F /  28.4 °C 63 °F /  17.2 °C 30.1in /  1018.0hPa NE 5.9mph /  9.5km/h 13mph /  20.9km/h 50.8% 0in /  0.0mm
13:19 83.1 °F /  28.4 °C 63.7 °F /  17.6 °C 30.1in /  1018.0hPa NNE 6mph /  9.7km/h 13mph /  20.9km/h 51.8% 0in /  0.0mm
13:24 83.7 °F /  28.7 °C 63.7 °F /  17.6 °C 30.1in /  1018.0hPa NNE 6.4mph /  10.3km/h 11mph /  17.7km/h 51.3% 0in /  0.0mm
13:29 83.7 °F /  28.7 °C 63.3 °F /  17.4 °C 30.1in /  1018.0hPa NNE 6.3mph /  10.2km/h 13.8mph /  22.2km/h 50.7% 0in /  0.0mm
13:34 83.5 °F /  28.6 °C 63.3 °F /  17.4 °C 30.1in /  1018.0hPa NE 6.2mph /  10km/h 14mph /  22.5km/h 50.8% 0in /  0.0mm
13:39 83.7 °F /  28.7 °C 63.5 °F /  17.5 °C 30.1in /  1017.8hPa NE 6.3mph /  10.2km/h 12mph /  19.3km/h 51% 0in /  0.0mm
13:44 84 °F /  28.9 °C 64 °F /  17.8 °C 30.1in /  1017.8hPa Este 6.9mph /  11.1km/h 11mph /  17.7km/h 51.2% 0in /  0.0mm
13:49 84.6 °F /  29.2 °C 64 °F /  17.8 °C 30.1in /  1017.8hPa ENE 6.6mph /  10.7km/h 13mph /  20.9km/h 50.3% 0in /  0.0mm
13:54 84.4 °F /  29.1 °C 64 °F /  17.8 °C 30.1in /  1017.6hPa NE 5.9mph /  9.5km/h 13mph /  20.9km/h 50.6% 0in /  0.0mm
13:59 84.2 °F /  29 °C 64.4 °F /  18 °C 30.1in /  1017.6hPa NNE 6mph /  9.7km/h 13mph /  20.9km/h 51.5% 0in /  0.0mm
14:04 84.2 °F /  29 °C 64.9 °F /  18.3 °C 30.1in /  1017.6hPa NE 6.4mph /  10.3km/h 13mph /  20.9km/h 52.3% 0in /  0.0mm
14:09 84.4 °F /  29.1 °C 64.9 °F /  18.3 °C 30.1in /  1017.5hPa NE 6.6mph /  10.7km/h 15mph /  24.1km/h 52.2% 0in /  0.0mm
14:14 84.2 °F /  29 °C 64.9 °F /  18.3 °C 30.1in /  1017.5hPa NE 7.4mph /  11.9km/h 16.8mph /  27km/h 52.7% 0in /  0.0mm
14:19 83.8 °F /  28.8 °C 64.9 °F /  18.3 °C 30.1in /  1017.5hPa ENE 7.7mph /  12.4km/h 17.3mph /  27.8km/h 53.3% 0in /  0.0mm
14:24 83.8 °F /  28.8 °C 65.5 °F /  18.6 °C 30.1in /  1017.5hPa NE 8.7mph /  14km/h 17.3mph /  27.8km/h 53.9% 0in /  0.0mm
14:29 84 °F /  28.9 °C 65.7 °F /  18.7 °C 30.1in /  1017.5hPa ENE 8.6mph /  13.8km/h 17mph /  27.4km/h 54.2% 0in /  0.0mm
14:34 84.4 °F /  29.1 °C 65.5 °F /  18.6 °C 30.1in /  1017.5hPa ENE 8.1mph /  13km/h 17.5mph /  28.2km/h 53.3% 0in /  0.0mm
14:39 84.2 °F /  29 °C 65.1 °F /  18.4 °C 30in /  1017.4hPa NE 8.6mph /  13.8km/h 17.3mph /  27.8km/h 52.9% 0in /  0.0mm
14:44 84 °F /  28.9 °C 65.5 °F /  18.6 °C 30in /  1017.4hPa NE 10mph /  16.1km/h 17.3mph /  27.8km/h 53.8% 0in /  0.0mm
14:49 84.4 °F /  29.1 °C 65.8 °F /  18.8 °C 30in /  1017.4hPa NE 9.7mph /  15.6km/h 17mph /  27.4km/h 53.8% 0in /  0.0mm
14:54 84.6 °F /  29.2 °C 65.8 °F /  18.8 °C 30in /  1017.3hPa NE 8.7mph /  14km/h 16mph /  25.7km/h 53.8% 0in /  0.0mm
14:59 84.7 °F /  29.3 °C 65.7 °F /  18.7 °C 30in /  1017.3hPa NE 8.5mph /  13.7km/h 14mph /  22.5km/h 52.8% 0in /  0.0mm
15:04 84.7 °F /  29.3 °C 65.7 °F /  18.7 °C 30in /  1017.4hPa NE 8.1mph /  13km/h 16.3mph /  26.2km/h 53% 0in /  0.0mm
15:09 84.7 °F /  29.3 °C 64.4 °F /  18 °C 30in /  1017.4hPa NE 8.3mph /  13.3km/h 17.3mph /  27.8km/h 50.7% 0in /  0.0mm
15:14 84.7 °F /  29.3 °C 64.4 °F /  18 °C 30in /  1017.4hPa ENE 8.7mph /  14km/h 17mph /  27.4km/h 50.7% 0in /  0.0mm
15:19 84.9 °F /  29.4 °C 64.6 °F /  18.1 °C 30in /  1017.4hPa ENE 8.4mph /  13.5km/h 19.7mph /  31.7km/h 50.5% 0in /  0.0mm
15:24 84.7 °F /  29.3 °C 64.8 °F /  18.2 °C 30in /  1017.3hPa Este 7.4mph /  11.9km/h 20mph /  32.2km/h 51.3% 0in /  0.0mm
15:29 84.6 °F /  29.2 °C 64.9 °F /  18.3 °C 30in /  1017.3hPa ENE 7.7mph /  12.4km/h 17mph /  27.4km/h 51.8% 0in /  0.0mm
15:34 84.6 °F /  29.2 °C 64.6 °F /  18.1 °C 30in /  1017.3hPa ENE 8.7mph /  14km/h 16.3mph /  26.2km/h 51.2% 0in /  0.0mm
15:39 84.6 °F /  29.2 °C 65.5 °F /  18.6 °C 30in /  1017.3hPa ENE 8.6mph /  13.9km/h 16mph /  25.7km/h 52.9% 0in /  0.0mm
15:44 84.4 °F /  29.1 °C 65.7 °F /  18.7 °C 30in /  1017.3hPa NE 8.5mph /  13.7km/h 19.6mph /  31.5km/h 53.5% 0in /  0.0mm
15:49 83.8 °F /  28.8 °C 65.5 °F /  18.6 °C 30in /  1017.3hPa ENE 8.8mph /  14.2km/h 20mph /  32.2km/h 54% 0in /  0.0mm
15:54 84 °F /  28.9 °C 65.8 °F /  18.8 °C 30in /  1017.2hPa NE 10mph /  16.1km/h 16.1mph /  25.9km/h 54.3% 0in /  0.0mm
15:59 84.4 °F /  29.1 °C 65.7 °F /  18.7 °C 30in /  1017.2hPa NE 9.6mph /  15.5km/h 17.3mph /  27.8km/h 53.6% 0in /  0.0mm
16:04 84 °F /  28.9 °C 65.1 °F /  18.4 °C 30in /  1017.2hPa NE 8.7mph /  14km/h 17.3mph /  27.8km/h 53.1% 0in /  0.0mm
16:09 84 °F /  28.9 °C 65.3 °F /  18.5 °C 30in /  1017.1hPa ENE 8.9mph /  14.4km/h 19.7mph /  31.7km/h 53.5% 0in /  0.0mm
16:14 83.8 °F /  28.8 °C 65.3 °F /  18.5 °C 30in /  1017.1hPa ENE 9.7mph /  15.6km/h 20mph /  32.2km/h 54% 0in /  0.0mm
16:19 83.8 °F /  28.8 °C 65.7 °F /  18.7 °C 30in /  1017.1hPa ENE 9.8mph /  15.8km/h 17.3mph /  27.8km/h 54.7% 0in /  0.0mm
16:24 83.8 °F /  28.8 °C 65.1 °F /  18.4 °C 30in /  1017.1hPa NE 10.2mph /  16.4km/h 19.7mph /  31.7km/h 53.4% 0in /  0.0mm
16:29 83.8 °F /  28.8 °C 64.8 °F /  18.2 °C 30in /  1017.1hPa NE 10.1mph /  16.2km/h 20mph /  32.2km/h 52.8% 0in /  0.0mm
16:34 83.7 °F /  28.7 °C 64.6 °F /  18.1 °C 30in /  1017.1hPa NE 9.7mph /  15.6km/h 19mph /  30.6km/h 52.7% 0in /  0.0mm
16:39 83.8 °F /  28.8 °C 64 °F /  17.8 °C 30in /  1017.1hPa NE 9.8mph /  15.7km/h 19mph /  30.6km/h 51.3% 0in /  0.0mm
16:44 84 °F /  28.9 °C 64.4 °F /  18 °C 30in /  1017.1hPa NE 10mph /  16.1km/h 20.8mph /  33.5km/h 51.8% 0in /  0.0mm
16:49 83.8 °F /  28.8 °C 65.3 °F /  18.5 °C 30in /  1017.1hPa ENE 10.1mph /  16.2km/h 21mph /  33.8km/h 53.8% 0in /  0.0mm
16:54 83.7 °F /  28.7 °C 64.6 °F /  18.1 °C 30in /  1017.0hPa NE 10.2mph /  16.4km/h 19.7mph /  31.7km/h 52.9% 0in /  0.0mm
16:59 83.7 °F /  28.7 °C 66 °F /  18.9 °C 30in /  1017.0hPa NE 9.8mph /  15.8km/h 20mph /  32.2km/h 55.2% 0in /  0.0mm
17:04 83.7 °F /  28.7 °C 65.8 °F /  18.8 °C 30in /  1017.1hPa ENE 8.7mph /  14km/h 16.3mph /  26.2km/h 55% 0in /  0.0mm
17:09 83.8 °F /  28.8 °C 65.3 °F /  18.5 °C 30in /  1017.1hPa NE 8.7mph /  14km/h 16.1mph /  25.9km/h 53.8% 0in /  0.0mm
17:14 83.7 °F /  28.7 °C 65.3 °F /  18.5 °C 30in /  1017.1hPa Este 8.7mph /  14km/h 16.1mph /  25.9km/h 53.9% 0in /  0.0mm
17:19 83.7 °F /  28.7 °C 65.5 °F /  18.6 °C 30in /  1017.1hPa ENE 8.4mph /  13.6km/h 16mph /  25.7km/h 54.3% 0in /  0.0mm
17:24 83.8 °F /  28.8 °C 64.8 °F /  18.2 °C 30in /  1017.1hPa ENE 7.6mph /  12.2km/h 13.8mph /  22.2km/h 52.7% 0in /  0.0mm
17:29 83.7 °F /  28.7 °C 63.5 °F /  17.5 °C 30in /  1017.1hPa NE 7.8mph /  12.6km/h 18.4mph /  29.6km/h 50.9% 0in /  0.0mm
17:34 83.7 °F /  28.7 °C 62.2 °F /  16.8 °C 30in /  1017.1hPa ENE 8.7mph /  14km/h 18mph /  29km/h 48.6% 0in /  0.0mm
17:39 83.5 °F /  28.6 °C 63 °F /  17.2 °C 30in /  1017.0hPa NE 9mph /  14.5km/h 18.1mph /  29.1km/h 50.3% 0in /  0.0mm
17:44 83.3 °F /  28.5 °C 62.4 °F /  16.9 °C 30in /  1017.0hPa ENE 10mph /  16.1km/h 18.4mph /  29.6km/h 49.7% 0in /  0.0mm
17:49 83.3 °F /  28.5 °C 63 °F /  17.2 °C 30in /  1017.0hPa ENE 9.9mph /  16km/h 17mph /  27.4km/h 50.4% 0in /  0.0mm
17:54 83.3 °F /  28.5 °C 62.6 °F /  17 °C 30in /  1017.0hPa NE 9.7mph /  15.6km/h 17.3mph /  27.8km/h 49.9% 0in /  0.0mm
17:59 83.1 °F /  28.4 °C 62.1 °F /  16.7 °C 30in /  1017.0hPa NE 9.8mph /  15.8km/h 18.4mph /  29.6km/h 49.1% 0in /  0.0mm
18:04 83.5 °F /  28.6 °C 61.9 °F /  16.6 °C 30in /  1017.0hPa NE 10.2mph /  16.4km/h 18mph /  29km/h 48.2% 0in /  0.0mm
18:09 83.7 °F /  28.7 °C 63 °F /  17.2 °C 30in /  1016.9hPa ENE 9.8mph /  15.7km/h 16.1mph /  25.9km/h 50% 0in /  0.0mm
18:14 83.5 °F /  28.6 °C 60.8 °F /  16 °C 30in /  1016.9hPa NE 8.5mph /  13.7km/h 19mph /  30.6km/h 46.7% 0in /  0.0mm
18:19 83.5 °F /  28.6 °C 61.5 °F /  16.4 °C 30in /  1016.9hPa NE 8.8mph /  14.1km/h 19mph /  30.6km/h 47.7% 0in /  0.0mm
18:24 83.5 °F /  28.6 °C 62.2 °F /  16.8 °C 30in /  1016.9hPa ENE 9.7mph /  15.6km/h 16mph /  25.7km/h 49% 0in /  0.0mm
18:29 83.3 °F /  28.5 °C 61.2 °F /  16.2 °C 30in /  1016.9hPa NE 9.2mph /  14.8km/h 17.3mph /  27.8km/h 47.2% 0in /  0.0mm
18:34 83.1 °F /  28.4 °C 62.2 °F /  16.8 °C 30in /  1016.9hPa NE 7.6mph /  12.2km/h 17mph /  27.4km/h 49.3% 0in /  0.0mm
18:39 82.9 °F /  28.3 °C 62.2 °F /  16.8 °C 30in /  1016.9hPa ENE 7.9mph /  12.7km/h 16.3mph /  26.2km/h 49.7% 0in /  0.0mm
18:44 82.8 °F /  28.2 °C 60.8 °F /  16 °C 30in /  1016.9hPa ENE 8.7mph /  14km/h 16mph /  25.7km/h 47.5% 0in /  0.0mm
18:49 82.9 °F /  28.3 °C 62.1 °F /  16.7 °C 30in /  1016.9hPa ENE 8.4mph /  13.6km/h 15mph /  24.1km/h 49.6% 0in /  0.0mm
18:54 82.6 °F /  28.1 °C 62.8 °F /  17.1 °C 30in /  1016.9hPa NE 7.6mph /  12.2km/h 15mph /  24.1km/h 51.2% 0in /  0.0mm
18:59 82.6 °F /  28.1 °C 63.7 °F /  17.6 °C 30in /  1016.9hPa ENE 7.8mph /  12.5km/h 15.6mph /  25.1km/h 53.2% 0in /  0.0mm
19:04 82.4 °F /  28 °C 63.5 °F /  17.5 °C 30in /  1016.9hPa ENE 8.1mph /  13km/h 16mph /  25.7km/h 53% 0in /  0.0mm
19:09 82.6 °F /  28.1 °C 64.2 °F /  17.9 °C 30in /  1016.9hPa NE 8mph /  12.8km/h 14mph /  22.5km/h 53.8% 0in /  0.0mm
19:14 82.4 °F /  28 °C 64.9 °F /  18.3 °C 30in /  1016.9hPa ENE 7.4mph /  11.9km/h 14mph /  22.5km/h 55.4% 0in /  0.0mm
19:19 82.2 °F /  27.9 °C 63.9 °F /  17.7 °C 30in /  1016.9hPa NE 7.4mph /  11.9km/h 15mph /  24.1km/h 54.1% 0in /  0.0mm
19:24 82 °F /  27.8 °C 63.7 °F /  17.6 °C 30in /  1016.8hPa NE 7.4mph /  11.9km/h 15.2mph /  24.5km/h 53.8% 0in /  0.0mm
19:29 81.7 °F /  27.6 °C 63.5 °F /  17.5 °C 30in /  1016.8hPa NE 7.8mph /  12.6km/h 16.3mph /  26.2km/h 54.2% 0in /  0.0mm
19:34 81.5 °F /  27.5 °C 64.2 °F /  17.9 °C 30in /  1016.8hPa NE 9.2mph /  14.8km/h 16mph /  25.7km/h 55.9% 0in /  0.0mm
19:39 81.5 °F /  27.5 °C 65.1 °F /  18.4 °C 30in /  1016.8hPa ENE 8.6mph /  13.9km/h 14mph /  22.5km/h 57.9% 0in /  0.0mm
19:44 81.1 °F /  27.3 °C 65.1 °F /  18.4 °C 30in /  1016.8hPa ENE 6.9mph /  11.1km/h 16.1mph /  25.9km/h 58.2% 0in /  0.0mm
19:49 81.1 °F /  27.3 °C 66 °F /  18.9 °C 30in /  1016.9hPa NE 6.8mph /  10.9km/h 16mph /  25.7km/h 60.2% 0in /  0.0mm
19:54 81 °F /  27.2 °C 65.3 °F /  18.5 °C 30in /  1016.9hPa ENE 6.4mph /  10.3km/h 12mph /  19.3km/h 58.8% 0in /  0.0mm
19:59 80.8 °F /  27.1 °C 64.9 °F /  18.3 °C 30in /  1016.9hPa NE 6.8mph /  10.9km/h 15mph /  24.1km/h 58.7% 0in /  0.0mm
20:04 80.4 °F /  26.9 °C 66 °F /  18.9 °C 30in /  1017.0hPa ENE 7.6mph /  12.2km/h 15mph /  24.1km/h 61.7% 0in /  0.0mm
20:09 80.2 °F /  26.8 °C 66 °F /  18.9 °C 30in /  1017.0hPa ENE 7.6mph /  12.2km/h 13.7mph /  22km/h 62% 0in /  0.0mm
20:14 80.1 °F /  26.7 °C 65.8 °F /  18.8 °C 30in /  1017.0hPa NE 7.6mph /  12.2km/h 14mph /  22.5km/h 62% 0in /  0.0mm
20:19 79.9 °F /  26.6 °C 65.8 °F /  18.8 °C 30in /  1017.0hPa NE 7.3mph /  11.8km/h 14mph /  22.5km/h 62% 0in /  0.0mm
20:24 79.9 °F /  26.6 °C 65.7 °F /  18.7 °C 30in /  1017.0hPa NE 6.4mph /  10.3km/h 14mph /  22.5km/h 62% 0in /  0.0mm
20:29 79.7 °F /  26.5 °C 65.5 °F /  18.6 °C 30in /  1017.0hPa NE 6.3mph /  10.2km/h 12.7mph /  20.4km/h 61.9% 0in /  0.0mm
20:34 79.3 °F /  26.3 °C 65.7 °F /  18.7 °C 30in /  1017.2hPa NE 6.2mph /  10km/h 13mph /  20.9km/h 62.9% 0in /  0.0mm
20:39 79.2 °F /  26.2 °C 66 °F /  18.9 °C 30in /  1017.2hPa NE 6.5mph /  10.4km/h 14mph /  22.5km/h 64.1% 0in /  0.0mm
20:44 79 °F /  26.1 °C 66.2 °F /  19 °C 30in /  1017.2hPa NE 7.4mph /  11.9km/h 14mph /  22.5km/h 65.1% 0in /  0.0mm
20:49 79 °F /  26.1 °C 66.7 °F /  19.3 °C 30in /  1017.3hPa NE 7mph /  11.3km/h 10mph /  16.1km/h 66.2% 0in /  0.0mm
20:54 78.6 °F /  25.9 °C 66.9 °F /  19.4 °C 30in /  1017.3hPa NE 5.9mph /  9.5km/h 9.2mph /  14.8km/h 67.4% 0in /  0.0mm
20:59 78.6 °F /  25.9 °C 67.5 °F /  19.7 °C 30in /  1017.3hPa NE 5.6mph /  9km/h 9mph /  14.5km/h 68.6% 0in /  0.0mm
21:04 78.4 °F /  25.8 °C 67.8 °F /  19.9 °C 30in /  1017.4hPa NE 4.7mph /  7.6km/h 9.2mph /  14.8km/h 69.9% 0in /  0.0mm
21:09 78.3 °F /  25.7 °C 68.2 °F /  20.1 °C 30in /  1017.4hPa NE 4.7mph /  7.6km/h 9mph /  14.5km/h 71.3% 0in /  0.0mm
21:14 78.1 °F /  25.6 °C 68.4 °F /  20.2 °C 30in /  1017.4hPa NE 4.7mph /  7.6km/h 9mph /  14.5km/h 72% 0in /  0.0mm
21:19 77.9 °F /  25.5 °C 68.4 °F /  20.2 °C 30.1in /  1017.6hPa NE 4.6mph /  7.4km/h 9mph /  14.5km/h 72.7% 0in /  0.0mm
21:24 77.7 °F /  25.4 °C 68.4 °F /  20.2 °C 30.1in /  1017.6hPa NE 4.3mph /  6.9km/h 8.5mph /  13.7km/h 73% 0in /  0.0mm
21:29 77.5 °F /  25.3 °C 68.4 °F /  20.2 °C 30.1in /  1017.6hPa NE 4.5mph /  7.3km/h 9.2mph /  14.8km/h 73.7% 0in /  0.0mm
21:34 77.4 °F /  25.2 °C 68.5 °F /  20.3 °C 30.1in /  1017.7hPa NE 5.2mph /  8.4km/h 9mph /  14.5km/h 74.2% 0in /  0.0mm
21:39 77.2 °F /  25.1 °C 68.5 °F /  20.3 °C 30.1in /  1017.7hPa NE 5.2mph /  8.4km/h 9mph /  14.5km/h 75% 0in /  0.0mm
21:44 77.2 °F /  25.1 °C 68.7 °F /  20.4 °C 30.1in /  1017.7hPa NE 5.2mph /  8.4km/h 8.1mph /  13km/h 75.1% 0in /  0.0mm
21:49 77.2 °F /  25.1 °C 69.1 °F /  20.6 °C 30.1in /  1017.8hPa NE 5.1mph /  8.2km/h 8.1mph /  13km/h 76% 0in /  0.0mm
21:54 77 °F /  25 °C 68.9 °F /  20.5 °C 30.1in /  1017.8hPa NE 4.7mph /  7.6km/h 8.5mph /  13.7km/h 76% 0in /  0.0mm
21:59 76.8 °F /  24.9 °C 69.1 °F /  20.6 °C 30.1in /  1017.8hPa NE 4.6mph /  7.4km/h 9mph /  14.5km/h 76.8% 0in /  0.0mm
22:04 76.8 °F /  24.9 °C 69.1 °F /  20.6 °C 30.1in /  1018.1hPa NE 4.3mph /  6.9km/h 8.1mph /  13km/h 77% 0in /  0.0mm
22:09 76.6 °F /  24.8 °C 69.1 °F /  20.6 °C 30.1in /  1018.1hPa NE 4.4mph /  7.1km/h 8.1mph /  13km/h 77% 0in /  0.0mm
22:14 76.6 °F /  24.8 °C 69.1 °F /  20.6 °C 30.1in /  1018.1hPa NE 4.7mph /  7.6km/h 8.1mph /  13km/h 77.6% 0in /  0.0mm
22:19 76.5 °F /  24.7 °C 69.1 °F /  20.6 °C 30.1in /  1018.2hPa NE 4.7mph /  7.6km/h 7.4mph /  11.9km/h 78% 0in /  0.0mm
22:24 76.5 °F /  24.7 °C 69.1 °F /  20.6 °C 30.1in /  1018.2hPa NE 4.7mph /  7.6km/h 7.4mph /  11.9km/h 78% 0in /  0.0mm
22:29 76.3 °F /  24.6 °C 69.1 °F /  20.6 °C 30.1in /  1018.2hPa NE 4.6mph /  7.4km/h 7mph /  11.3km/h 78.3% 0in /  0.0mm
22:34 76.3 °F /  24.6 °C 69.3 °F /  20.7 °C 30.1in /  1018.4hPa NE 4.3mph /  6.9km/h 6mph /  9.7km/h 79% 0in /  0.0mm
22:39 76.3 °F /  24.6 °C 69.3 °F /  20.7 °C 30.1in /  1018.4hPa NE 4mph /  6.4km/h 6mph /  9.7km/h 79% 0in /  0.0mm
22:44 76.3 °F /  24.6 °C 69.3 °F /  20.7 °C 30.1in /  1018.4hPa NE 2.9mph /  4.7km/h 6mph /  9.7km/h 79% 0in /  0.0mm
22:49 76.3 °F /  24.6 °C 69.3 °F /  20.7 °C 30.1in /  1018.5hPa ENE 2.9mph /  4.7km/h 5.8mph /  9.3km/h 79% 0in /  0.0mm
22:54 76.3 °F /  24.6 °C 69.3 °F /  20.7 °C 30.1in /  1018.5hPa NE 3.1mph /  5km/h 6mph /  9.7km/h 79% 0in /  0.0mm
22:59 76.3 °F /  24.6 °C 69.3 °F /  20.7 °C 30.1in /  1018.5hPa NE 2.9mph /  4.7km/h 5mph /  8km/h 79% 0in /  0.0mm
23:04 76.3 °F /  24.6 °C 69.3 °F /  20.7 °C 30.1in /  1018.5hPa NNE 2.4mph /  3.9km/h 5mph /  8km/h 79% 0in /  0.0mm
23:09 76.3 °F /  24.6 °C 69.3 °F /  20.7 °C 30.1in /  1018.5hPa NNE 2.5mph /  4.1km/h 5.2mph /  8.4km/h 79% 0in /  0.0mm
23:14 76.1 °F /  24.5 °C 69.1 °F /  20.6 °C 30.1in /  1018.5hPa NE 2.9mph /  4.7km/h 5mph /  8km/h 79% 0in /  0.0mm
23:19 75.9 °F /  24.4 °C 68.9 °F /  20.5 °C 30.1in /  1018.5hPa North 2.8mph /  4.5km/h 5mph /  8km/h 79.1% 0in /  0.0mm
23:24 75.9 °F /  24.4 °C 69.3 °F /  20.7 °C 30.1in /  1018.5hPa NE 2.4mph /  3.9km/h 5mph /  8km/h 80% 0in /  0.0mm
23:29 75.9 °F /  24.4 °C 69.3 °F /  20.7 °C 30.1in /  1018.5hPa NNE 2.4mph /  3.9km/h 5mph /  8km/h 80% 0in /  0.0mm
23:34 75.7 °F /  24.3 °C 69.3 °F /  20.7 °C 30.1in /  1018.6hPa NNE 2.4mph /  3.9km/h 5mph /  8km/h 80% 0in /  0.0mm
23:39 75.7 °F /  24.3 °C 69.1 °F /  20.6 °C 30.1in /  1018.6hPa North 2.2mph /  3.6km/h 5mph /  8km/h 80% 0in /  0.0mm
23:44 75.7 °F /  24.3 °C 69.1 °F /  20.6 °C 30.1in /  1018.6hPa North 1.8mph /  2.9km/h 4.6mph /  7.4km/h 80% 0in /  0.0mm
23:49 75.7 °F /  24.3 °C 69.1 °F /  20.6 °C 30.1in /  1018.6hPa NNE 1.8mph /  2.9km/h 5mph /  8km/h 80% 0in /  0.0mm
23:54 75.7 °F /  24.3 °C 69.1 °F /  20.6 °C 30.1in /  1018.5hPa NE 1.8mph /  2.9km/h 4mph /  6.4km/h 80% 0in /  0.0mm
23:59 75.7 °F /  24.3 °C 69.1 °F /  20.6 °C 30.1in /  1018.5hPa NE 1.3mph /  2.1km/h 2.9mph /  4.7km/h 80% 0in /  0.0mm
Murcia-Puente Tocinos, España
Compliments of Weather Underground - 3 mb

La estación de MeteoMurcia.com, publica sus datos en los siguientes proyectos:

Weather Underground PWS IMURCIAP2 Meteoclimatic www.awekas.at

W3Counter
Web Analytics